sensor_id;sensor_type;location;lat;lon;timestamp;pressure;altitude;pressure_sealevel;temperature;humidity
11987;BME280;6053;51.382;6.768;2023-02-28T00:01:35;102658.97;;;5.20;81.45
11987;BME280;6053;51.382;6.768;2023-02-28T00:04:04;102658.53;;;5.25;81.00
11987;BME280;6053;51.382;6.768;2023-02-28T00:06:32;102656.53;;;5.17;81.25
11987;BME280;6053;51.382;6.768;2023-02-28T00:09:01;102650.06;;;5.18;81.18
11987;BME280;6053;51.382;6.768;2023-02-28T00:11:30;102658.97;;;5.20;81.18
11987;BME280;6053;51.382;6.768;2023-02-28T00:14:00;102650.91;;;5.18;81.23
11987;BME280;6053;51.382;6.768;2023-02-28T00:16:28;102657.53;;;5.16;81.00
11987;BME280;6053;51.382;6.768;2023-02-28T00:18:57;102655.44;;;5.10;81.50
11987;BME280;6053;51.382;6.768;2023-02-28T00:21:26;102656.84;;;5.14;81.41
11987;BME280;6053;51.382;6.768;2023-02-28T00:23:55;102653.09;;;5.15;81.44
11987;BME280;6053;51.382;6.768;2023-02-28T00:26:23;102653.94;;;5.15;80.97
11987;BME280;6053;51.382;6.768;2023-02-28T00:28:52;102653.94;;;5.15;81.24
11987;BME280;6053;51.382;6.768;2023-02-28T00:31:22;102650.66;;;5.12;80.96
11987;BME280;6053;51.382;6.768;2023-02-28T00:33:51;102647.34;;;5.08;81.52
11987;BME280;6053;51.382;6.768;2023-02-28T00:36:19;102657.44;;;5.08;81.32
11987;BME280;6053;51.382;6.768;2023-02-28T00:38:48;102652.25;;;5.05;81.45
11987;BME280;6053;51.382;6.768;2023-02-28T00:41:16;102651.69;;;5.01;81.64
11987;BME280;6053;51.382;6.768;2023-02-28T00:43:45;102648.81;;;5.03;81.59
11987;BME280;6053;51.382;6.768;2023-02-28T00:46:14;102652.44;;;5.03;81.67
11987;BME280;6053;51.382;6.768;2023-02-28T00:48:44;102655.16;;;5.03;81.59
11987;BME280;6053;51.382;6.768;2023-02-28T00:51:12;102652.56;;;5.02;81.59
11987;BME280;6053;51.382;6.768;2023-02-28T00:53:41;102646.97;;;5.03;81.61
11987;BME280;6053;51.382;6.768;2023-02-28T00:56:10;102662.34;;;5.04;81.18
11987;BME280;6053;51.382;6.768;2023-02-28T00:58:39;102660.50;;;4.95;81.47
11987;BME280;6053;51.382;6.768;2023-02-28T01:01:07;102666.97;;;4.94;82.07
11987;BME280;6053;51.382;6.768;2023-02-28T01:03:36;102663.22;;;4.95;81.62
11987;BME280;6053;51.382;6.768;2023-02-28T01:06:07;102664.38;;;4.92;81.83
11987;BME280;6053;51.382;6.768;2023-02-28T01:08:35;102671.88;;;5.00;81.34
11987;BME280;6053;51.382;6.768;2023-02-28T01:11:08;102666.81;;;4.95;81.66
11987;BME280;6053;51.382;6.768;2023-02-28T01:13:37;102675.31;;;4.92;81.57
11987;BME280;6053;51.382;6.768;2023-02-28T01:16:06;102673.47;;;4.93;81.34
11987;BME280;6053;51.382;6.768;2023-02-28T01:18:36;102670.16;;;4.89;81.82
11987;BME280;6053;51.382;6.768;2023-02-28T01:21:07;102665.28;;;4.83;81.95
11987;BME280;6053;51.382;6.768;2023-02-28T01:23:36;102671.63;;;4.84;82.06
11987;BME280;6053;51.382;6.768;2023-02-28T01:26:05;102670.16;;;4.89;81.53
11987;BME280;6053;51.382;6.768;2023-02-28T01:28:35;102668.88;;;4.84;82.19
11987;BME280;6053;51.382;6.768;2023-02-28T01:31:04;102665.84;;;4.87;81.59
11987;BME280;6053;51.382;6.768;2023-02-28T01:33:33;102662.41;;;4.75;80.91
11987;BME280;6053;51.382;6.768;2023-02-28T01:36:04;102661.72;;;4.73;82.50
11987;BME280;6053;51.382;6.768;2023-02-28T01:38:34;102665.59;;;4.80;81.74
11987;BME280;6053;51.382;6.768;2023-02-28T01:41:03;102662.97;;;4.79;82.44
11987;BME280;6053;51.382;6.768;2023-02-28T01:46:20;102668.31;;;4.80;81.53
11987;BME280;6053;51.382;6.768;2023-02-28T01:48:51;102658.06;;;4.92;79.44
11987;BME280;6053;51.382;6.768;2023-02-28T01:51:23;102663.72;;;4.81;79.24
11987;BME280;6053;51.382;6.768;2023-02-28T01:54:00;102662.44;;;4.65;81.84
11987;BME280;6053;51.382;6.768;2023-02-28T01:56:32;102655.81;;;4.68;81.60
11987;BME280;6053;51.382;6.768;2023-02-28T01:59:03;102658.28;;;4.61;79.13
11987;BME280;6053;51.382;6.768;2023-02-28T02:01:32;102653.94;;;4.59;81.53
11987;BME280;6053;51.382;6.768;2023-02-28T02:04:02;102656.41;;;4.52;82.26
11987;BME280;6053;51.382;6.768;2023-02-28T02:06:35;102651.78;;;4.72;81.72
11987;BME280;6053;51.382;6.768;2023-02-28T02:09:06;102644.31;;;4.64;81.95
11987;BME280;6053;51.382;6.768;2023-02-28T02:11:36;102645.03;;;4.66;81.86
11987;BME280;6053;51.382;6.768;2023-02-28T02:14:34;102645.47;;;4.62;82.00
11987;BME280;6053;51.382;6.768;2023-02-28T02:17:16;102636.38;;;4.71;81.71
11987;BME280;6053;51.382;6.768;2023-02-28T02:23:14;102640.56;;;4.65;81.80
11987;BME280;6053;51.382;6.768;2023-02-28T02:30:08;102631.66;;;4.63;81.73
11987;BME280;6053;51.382;6.768;2023-02-28T02:36:04;102625.63;;;4.60;81.96
11987;BME280;6053;51.382;6.768;2023-02-28T02:38:36;102624.03;;;4.67;81.75
11987;BME280;6053;51.382;6.768;2023-02-28T02:41:13;102623.59;;;4.62;81.71
11987;BME280;6053;51.382;6.768;2023-02-28T02:43:47;102614.06;;;4.66;81.23
11987;BME280;6053;51.382;6.768;2023-02-28T02:46:20;102622.59;;;4.63;81.43
11987;BME280;6053;51.382;6.768;2023-02-28T02:48:52;102623.31;;;4.55;81.90
11987;BME280;6053;51.382;6.768;2023-02-28T02:51:24;102623.31;;;4.55;82.17
11987;BME280;6053;51.382;6.768;2023-02-28T02:53:56;102629.63;;;4.56;82.06
11987;BME280;6053;51.382;6.768;2023-02-28T02:56:29;102630.66;;;4.55;82.32
11987;BME280;6053;51.382;6.768;2023-02-28T02:59:03;102624.47;;;4.53;81.55
11987;BME280;6053;51.382;6.768;2023-02-28T03:01:33;102630.09;;;4.51;81.60
11987;BME280;6053;51.382;6.768;2023-02-28T03:04:05;102626.78;;;4.47;82.14
11987;BME280;6053;51.382;6.768;2023-02-28T03:06:37;102643.19;;;4.47;82.10
11987;BME280;6053;51.382;6.768;2023-02-28T03:09:05;102640.59;;;4.46;81.87
11987;BME280;6053;51.382;6.768;2023-02-28T03:11:36;102643.03;;;4.49;82.12
11987;BME280;6053;51.382;6.768;2023-02-28T03:16:55;102627.94;;;4.45;81.95
11987;BME280;6053;51.382;6.768;2023-02-28T03:19:37;102629.97;;;4.43;82.44
11987;BME280;6053;51.382;6.768;2023-02-28T03:22:26;102623.78;;;4.41;82.56
11987;BME280;6053;51.382;6.768;2023-02-28T03:25:02;102614.84;;;4.39;82.63
11987;BME280;6053;51.382;6.768;2023-02-28T03:27:40;102615.16;;;4.36;81.99
11987;BME280;6053;51.382;6.768;2023-02-28T03:30:13;102622.78;;;4.32;82.37
11987;BME280;6053;51.382;6.768;2023-02-28T03:32:50;102624.53;;;4.33;82.34
11987;BME280;6053;51.382;6.768;2023-02-28T03:35:23;102627.81;;;4.37;82.40
11987;BME280;6053;51.382;6.768;2023-02-28T03:38:02;102633.56;;;4.34;82.27
11987;BME280;6053;51.382;6.768;2023-02-28T03:40:33;102628.53;;;4.29;82.01
11987;BME280;6053;51.382;6.768;2023-02-28T03:43:09;102636.59;;;4.31;82.25
11987;BME280;6053;51.382;6.768;2023-02-28T03:45:40;102629.13;;;4.33;81.95
11987;BME280;6053;51.382;6.768;2023-02-28T03:48:13;102628.09;;;4.34;81.94
11987;BME280;6053;51.382;6.768;2023-02-28T03:50:45;102632.28;;;4.28;82.32
11987;BME280;6053;51.382;6.768;2023-02-28T03:53:18;102629.69;;;4.27;82.14
11987;BME280;6053;51.382;6.768;2023-02-28T03:55:51;102637.03;;;4.26;82.01
11987;BME280;6053;51.382;6.768;2023-02-28T03:58:24;102635.00;;;4.28;82.55
11987;BME280;6053;51.382;6.768;2023-02-28T04:01:00;102635.56;;;4.22;82.27
11987;BME280;6053;51.382;6.768;2023-02-28T04:03:36;102641.78;;;4.24;82.16
11987;BME280;6053;51.382;6.768;2023-02-28T04:06:08;102644.63;;;4.22;82.16
11987;BME280;6053;51.382;6.768;2023-02-28T04:08:42;102643.78;;;4.22;82.15
11987;BME280;6053;51.382;6.768;2023-02-28T04:11:18;102637.16;;;4.24;82.19
11987;BME280;6053;51.382;6.768;2023-02-28T04:13:49;102635.88;;;4.19;81.99
11987;BME280;6053;51.382;6.768;2023-02-28T04:16:17;102643.78;;;4.22;82.38
11987;BME280;6053;51.382;6.768;2023-02-28T04:19:02;102644.06;;;4.19;81.76
11987;BME280;6053;51.382;6.768;2023-02-28T04:21:33;102640.34;;;4.20;82.25
11987;BME280;6053;51.382;6.768;2023-02-28T04:24:05;102641.94;;;4.13;82.18
11987;BME280;6053;51.382;6.768;2023-02-28T04:26:35;102647.38;;;4.13;82.39
11987;BME280;6053;51.382;6.768;2023-02-28T04:29:05;102645.81;;;4.10;82.76
11987;BME280;6053;51.382;6.768;2023-02-28T04:31:34;102646.94;;;4.08;82.39
11987;BME280;6053;51.382;6.768;2023-02-28T04:34:04;102655.59;;;4.13;82.48
11987;BME280;6053;51.382;6.768;2023-02-28T04:36:33;102643.78;;;4.12;82.16
11987;BME280;6053;51.382;6.768;2023-02-28T04:39:03;102644.66;;;4.13;82.18
11987;BME280;6053;51.382;6.768;2023-02-28T04:41:32;102647.97;;;4.07;82.43
11987;BME280;6053;51.382;6.768;2023-02-28T04:44:02;102645.34;;;4.05;82.36
11987;BME280;6053;51.382;6.768;2023-02-28T04:46:30;102644.78;;;4.01;82.41
11987;BME280;6053;51.382;6.768;2023-02-28T04:48:59;102649.09;;;4.04;82.62
11987;BME280;6053;51.382;6.768;2023-02-28T04:51:28;102644.19;;;3.98;82.28
11987;BME280;6053;51.382;6.768;2023-02-28T04:53:57;102651.25;;;4.00;82.32
11987;BME280;6053;51.382;6.768;2023-02-28T04:56:27;102652.00;;;4.03;82.30
11987;BME280;6053;51.382;6.768;2023-02-28T04:58:56;102655.28;;;3.96;82.87
11987;BME280;6053;51.382;6.768;2023-02-28T05:01:26;102652.84;;;4.03;82.39
11987;BME280;6053;51.382;6.768;2023-02-28T05:03:56;102653.53;;;3.95;82.22
11987;BME280;6053;51.382;6.768;2023-02-28T05:06:27;102648.22;;;3.94;82.32
11987;BME280;6053;51.382;6.768;2023-02-28T05:08:56;102657.44;;;3.93;82.83
11987;BME280;6053;51.382;6.768;2023-02-28T05:11:28;102657.44;;;3.93;82.66
11987;BME280;6053;51.382;6.768;2023-02-28T05:14:01;102650.81;;;3.86;83.01
11987;BME280;6053;51.382;6.768;2023-02-28T05:16:31;102647.38;;;3.93;82.87
11987;BME280;6053;51.382;6.768;2023-02-28T05:19:00;102664.63;;;3.94;82.52
11987;BME280;6053;51.382;6.768;2023-02-28T05:21:30;102664.06;;;4.00;81.79
11987;BME280;6053;51.382;6.768;2023-02-28T05:24:01;102663.59;;;3.95;81.95
11987;BME280;6053;51.382;6.768;2023-02-28T05:26:34;102660.44;;;3.90;82.38
11987;BME280;6053;51.382;6.768;2023-02-28T05:29:03;102659.59;;;3.89;82.05
11987;BME280;6053;51.382;6.768;2023-02-28T05:31:32;102659.13;;;3.84;82.78
11987;BME280;6053;51.382;6.768;2023-02-28T05:34:01;102668.47;;;3.91;82.30
11987;BME280;6053;51.382;6.768;2023-02-28T05:36:31;102664.47;;;3.86;82.29
11987;BME280;6053;51.382;6.768;2023-02-28T05:39:00;102666.91;;;3.79;82.70
11987;BME280;6053;51.382;6.768;2023-02-28T05:41:28;102664.75;;;3.83;82.59
11987;BME280;6053;51.382;6.768;2023-02-28T05:43:59;102674.09;;;3.80;82.30
11987;BME280;6053;51.382;6.768;2023-02-28T05:46:28;102671.63;;;3.77;82.68
11987;BME280;6053;51.382;6.768;2023-02-28T05:48:57;102674.34;;;3.77;82.50
11987;BME280;6053;51.382;6.768;2023-02-28T05:51:27;102670.63;;;3.78;82.20
11987;BME280;6053;51.382;6.768;2023-02-28T05:53:59;102673.22;;;3.80;82.26
11987;BME280;6053;51.382;6.768;2023-02-28T05:56:29;102675.50;;;3.84;81.99
11987;BME280;6053;51.382;6.768;2023-02-28T05:58:59;102678.69;;;3.80;81.96
11987;BME280;6053;51.382;6.768;2023-02-28T06:01:32;102681.97;;;3.73;82.20
11987;BME280;6053;51.382;6.768;2023-02-28T06:04:02;102681.09;;;3.73;82.66
11987;BME280;6053;51.382;6.768;2023-02-28T06:06:31;102686.09;;;3.68;82.74
11987;BME280;6053;51.382;6.768;2023-02-28T06:09:03;102685.72;;;3.72;82.25
11987;BME280;6053;51.382;6.768;2023-02-28T06:11:33;102681.19;;;3.62;82.06
11987;BME280;6053;51.382;6.768;2023-02-28T06:14:03;102693.44;;;3.67;82.26
11987;BME280;6053;51.382;6.768;2023-02-28T06:16:33;102689.13;;;3.65;82.32
11987;BME280;6053;51.382;6.768;2023-02-28T06:19:03;102695.31;;;3.67;82.29
11987;BME280;6053;51.382;6.768;2023-02-28T06:21:32;102704.38;;;3.77;81.82
11987;BME280;6053;51.382;6.768;2023-02-28T06:24:01;102707.81;;;3.69;81.88
11987;BME280;6053;51.382;6.768;2023-02-28T06:26:30;102706.38;;;3.75;82.07
11987;BME280;6053;51.382;6.768;2023-02-28T06:28:59;102703.34;;;3.68;81.70
11987;BME280;6053;51.382;6.768;2023-02-28T06:31:30;102703.38;;;3.78;81.18
11987;BME280;6053;51.382;6.768;2023-02-28T06:33:59;102703.81;;;3.73;81.21
11987;BME280;6053;51.382;6.768;2023-02-28T06:36:28;102705.13;;;3.79;81.58
11987;BME280;6053;51.382;6.768;2023-02-28T06:38:56;102708.97;;;3.76;81.82
11987;BME280;6053;51.382;6.768;2023-02-28T06:41:26;102717.19;;;3.76;81.53
11987;BME280;6053;51.382;6.768;2023-02-28T06:43:56;102708.72;;;3.80;81.52
11987;BME280;6053;51.382;6.768;2023-02-28T06:46:24;102708.13;;;3.76;81.45
11987;BME280;6053;51.382;6.768;2023-02-28T06:48:54;102715.72;;;3.72;81.17
11987;BME280;6053;51.382;6.768;2023-02-28T06:51:23;102722.06;;;3.73;81.12
11987;BME280;6053;51.382;6.768;2023-02-28T06:53:52;102721.47;;;3.69;81.67
11987;BME280;6053;51.382;6.768;2023-02-28T06:56:20;102726.88;;;3.60;79.41
11987;BME280;6053;51.382;6.768;2023-02-28T06:58:50;102724.28;;;3.58;81.17
11987;BME280;6053;51.382;6.768;2023-02-28T07:01:20;102727.00;;;3.58;81.29
11987;BME280;6053;51.382;6.768;2023-02-28T07:03:50;102727.16;;;3.57;80.41
11987;BME280;6053;51.382;6.768;2023-02-28T07:06:21;102731.38;;;3.70;79.91
11987;BME280;6053;51.382;6.768;2023-02-28T07:08:51;102727.63;;;3.71;80.60
11987;BME280;6053;51.382;6.768;2023-02-28T07:11:23;102725.44;;;3.56;72.84
11987;BME280;6053;51.382;6.768;2023-02-28T07:13:53;102734.06;;;3.61;74.35
11987;BME280;6053;51.382;6.768;2023-02-28T07:16:24;102727.94;;;3.38;77.66
11987;BME280;6053;51.382;6.768;2023-02-28T07:18:53;102728.56;;;3.51;81.39
11987;BME280;6053;51.382;6.768;2023-02-28T07:21:24;102728.75;;;3.69;80.85
11987;BME280;6053;51.382;6.768;2023-02-28T07:23:52;102730.09;;;3.74;77.48
11987;BME280;6053;51.382;6.768;2023-02-28T07:26:33;102732.34;;;3.60;80.44
11987;BME280;6053;51.382;6.768;2023-02-28T07:29:02;102737.66;;;3.61;78.81
11987;BME280;6053;51.382;6.768;2023-02-28T07:31:31;102735.06;;;3.60;75.64
11987;BME280;6053;51.382;6.768;2023-02-28T07:33:59;102735.34;;;3.57;77.64
11987;BME280;6053;51.382;6.768;2023-02-28T07:36:29;102739.38;;;3.52;77.56
11987;BME280;6053;51.382;6.768;2023-02-28T07:38:59;102747.66;;;3.20;72.60
11987;BME280;6053;51.382;6.768;2023-02-28T07:41:27;102745.34;;;3.46;80.65
11987;BME280;6053;51.382;6.768;2023-02-28T07:43:57;102749.16;;;3.65;73.49
11987;BME280;6053;51.382;6.768;2023-02-28T07:46:27;102738.94;;;3.26;76.99
11987;BME280;6053;51.382;6.768;2023-02-28T07:48:57;102753.31;;;3.59;78.37
11987;BME280;6053;51.382;6.768;2023-02-28T07:51:27;102745.72;;;3.63;79.88
11987;BME280;6053;51.382;6.768;2023-02-28T07:53:57;102745.00;;;3.30;74.79
11987;BME280;6053;51.382;6.768;2023-02-28T07:56:26;102752.59;;;3.26;72.07
11987;BME280;6053;51.382;6.768;2023-02-28T07:58:55;102755.66;;;3.12;77.49
11987;BME280;6053;51.382;6.768;2023-02-28T08:01:24;102748.09;;;3.46;73.67
11987;BME280;6053;51.382;6.768;2023-02-28T08:03:52;102754.44;;;3.57;78.71
11987;BME280;6053;51.382;6.768;2023-02-28T08:06:23;102752.59;;;3.26;75.13
11987;BME280;6053;51.382;6.768;2023-02-28T08:08:53;102756.50;;;3.34;78.95
11987;BME280;6053;51.382;6.768;2023-02-28T08:11:24;102752.38;;;3.18;73.97
11987;BME280;6053;51.382;6.768;2023-02-28T08:13:54;102755.66;;;3.12;78.33
11987;BME280;6053;51.382;6.768;2023-02-28T08:16:23;102756.78;;;3.10;70.53
11987;BME280;6053;51.382;6.768;2023-02-28T08:18:52;102762.88;;;2.28;73.01
11987;BME280;6053;51.382;6.768;2023-02-28T08:21:21;102751.09;;;2.39;71.80
11987;BME280;6053;51.382;6.768;2023-02-28T08:23:51;102764.13;;;2.24;68.87
11987;BME280;6053;51.382;6.768;2023-02-28T08:26:20;102761.75;;;1.76;70.60
11987;BME280;6053;51.382;6.768;2023-02-28T08:28:50;102764.44;;;1.87;73.00
11987;BME280;6053;51.382;6.768;2023-02-28T08:31:19;102760.28;;;1.72;77.21
11987;BME280;6053;51.382;6.768;2023-02-28T08:33:48;102762.59;;;1.99;78.18
11987;BME280;6053;51.382;6.768;2023-02-28T08:36:18;102773.72;;;1.84;74.12
11987;BME280;6053;51.382;6.768;2023-02-28T08:38:47;102759.38;;;2.37;72.49
11987;BME280;6053;51.382;6.768;2023-02-28T08:41:16;102754.53;;;2.94;78.48
11987;BME280;6053;51.382;6.768;2023-02-28T08:43:45;102769.13;;;1.96;68.41
11987;BME280;6053;51.382;6.768;2023-02-28T08:46:15;102765.88;;;2.25;71.56
11987;BME280;6053;51.382;6.768;2023-02-28T08:48:43;102760.88;;;2.30;73.00
11987;BME280;6053;51.382;6.768;2023-02-28T08:51:14;102761.84;;;1.97;67.62
11987;BME280;6053;51.382;6.768;2023-02-28T08:53:45;102762.50;;;2.21;67.73
11987;BME280;6053;51.382;6.768;2023-02-28T08:56:17;102759.72;;;2.00;69.24
11987;BME280;6053;51.382;6.768;2023-02-28T08:58:48;102762.97;;;2.38;69.29
11987;BME280;6053;51.382;6.768;2023-02-28T09:01:20;102758.47;;;2.48;65.59
11987;BME280;6053;51.382;6.768;2023-02-28T09:03:50;102756.81;;;2.56;67.31
11987;BME280;6053;51.382;6.768;2023-02-28T09:06:20;102759.03;;;1.76;63.86
11987;BME280;6053;51.382;6.768;2023-02-28T09:08:50;102752.28;;;2.46;70.76
11987;BME280;6053;51.382;6.768;2023-02-28T09:11:19;102746.34;;;2.73;64.40
11987;BME280;6053;51.382;6.768;2023-02-28T09:13:48;102739.44;;;2.69;65.43
11987;BME280;6053;51.382;6.768;2023-02-28T09:16:18;102745.88;;;3.10;68.99
11987;BME280;6053;51.382;6.768;2023-02-28T09:18:48;102738.16;;;2.52;70.42
11987;BME280;6053;51.382;6.768;2023-02-28T09:21:18;102737.44;;;3.13;70.00
11987;BME280;6053;51.382;6.768;2023-02-28T09:23:49;102745.94;;;2.77;63.56
11987;BME280;6053;51.382;6.768;2023-02-28T09:26:20;102735.72;;;2.70;69.73
11987;BME280;6053;51.382;6.768;2023-02-28T09:28:50;102749.44;;;2.68;62.98
11987;BME280;6053;51.382;6.768;2023-02-28T09:31:22;102744.16;;;2.67;65.17
11987;BME280;6053;51.382;6.768;2023-02-28T09:33:53;102738.25;;;2.82;66.77
11987;BME280;6053;51.382;6.768;2023-02-28T09:36:23;102743.34;;;2.97;59.89
11987;BME280;6053;51.382;6.768;2023-02-28T09:39:07;102741.91;;;2.72;60.49
11987;BME280;6053;51.382;6.768;2023-02-28T09:41:39;102730.72;;;2.96;65.71
11987;BME280;6053;51.382;6.768;2023-02-28T09:44:20;102741.31;;;2.89;64.13
11987;BME280;6053;51.382;6.768;2023-02-28T09:46:56;102736.72;;;2.90;61.76
11987;BME280;6053;51.382;6.768;2023-02-28T09:49:34;102736.97;;;3.38;62.96
11987;BME280;6053;51.382;6.768;2023-02-28T09:52:09;102747.09;;;3.88;56.18
11987;BME280;6053;51.382;6.768;2023-02-28T09:54:38;102747.88;;;4.09;53.46
11987;BME280;6053;51.382;6.768;2023-02-28T09:57:10;102743.44;;;4.37;56.20
11987;BME280;6053;51.382;6.768;2023-02-28T09:59:51;102735.53;;;4.34;54.15
11987;BME280;6053;51.382;6.768;2023-02-28T10:02:46;102741.00;;;4.54;54.00
11987;BME280;6053;51.382;6.768;2023-02-28T10:05:21;102744.81;;;4.12;54.26
11987;BME280;6053;51.382;6.768;2023-02-28T10:08:02;102742.59;;;4.37;55.76
11987;BME280;6053;51.382;6.768;2023-02-28T10:10:37;102737.94;;;4.86;51.92
11987;BME280;6053;51.382;6.768;2023-02-28T10:13:14;102736.97;;;5.43;54.05
11987;BME280;6053;51.382;6.768;2023-02-28T10:15:45;102732.97;;;5.65;52.14
11987;BME280;6053;51.382;6.768;2023-02-28T10:18:21;102735.88;;;5.64;53.57
11987;BME280;6053;51.382;6.768;2023-02-28T10:20:53;102721.91;;;6.66;54.26
11987;BME280;6053;51.382;6.768;2023-02-28T10:23:27;102733.81;;;5.66;53.37
11987;BME280;6053;51.382;6.768;2023-02-28T10:26:00;102737.41;;;4.34;49.92
11987;BME280;6053;51.382;6.768;2023-02-28T10:28:32;102727.91;;;4.57;53.81
11987;BME280;6053;51.382;6.768;2023-02-28T10:31:01;102736.09;;;4.38;52.98
11987;BME280;6053;51.382;6.768;2023-02-28T10:33:33;102719.44;;;4.60;52.98
11987;BME280;6053;51.382;6.768;2023-02-28T10:36:03;102725.47;;;4.64;53.32
11987;BME280;6053;51.382;6.768;2023-02-28T10:38:36;102722.63;;;5.12;56.22
11987;BME280;6053;51.382;6.768;2023-02-28T10:41:07;102719.09;;;5.39;52.21
11987;BME280;6053;51.382;6.768;2023-02-28T10:43:37;102725.47;;;5.30;50.66
11987;BME280;6053;51.382;6.768;2023-02-28T10:46:13;102719.63;;;5.80;49.30
11987;BME280;6053;51.382;6.768;2023-02-28T10:48:45;102720.41;;;6.00;51.29
11987;BME280;6053;51.382;6.768;2023-02-28T10:51:19;102728.94;;;5.23;48.55
11987;BME280;6053;51.382;6.768;2023-02-28T10:53:51;102714.16;;;5.06;51.54
11987;BME280;6053;51.382;6.768;2023-02-28T10:56:29;102717.56;;;4.61;50.87
11987;BME280;6053;51.382;6.768;2023-02-28T10:58:59;102709.94;;;4.45;52.20
11987;BME280;6053;51.382;6.768;2023-02-28T11:01:37;102711.22;;;4.21;54.42
11987;BME280;6053;51.382;6.768;2023-02-28T11:04:33;102706.03;;;4.38;56.56
11987;BME280;6053;51.382;6.768;2023-02-28T11:07:05;102701.84;;;4.72;49.46
11987;BME280;6053;51.382;6.768;2023-02-28T11:09:36;102697.03;;;5.04;50.54
11987;BME280;6053;51.382;6.768;2023-02-28T11:12:17;102697.59;;;5.17;51.53
11987;BME280;6053;51.382;6.768;2023-02-28T11:14:49;102697.03;;;5.51;50.08
11987;BME280;6053;51.382;6.768;2023-02-28T11:17:21;102698.88;;;5.13;48.37
11987;BME280;6053;51.382;6.768;2023-02-28T11:19:54;102691.41;;;5.05;50.57
11987;BME280;6053;51.382;6.768;2023-02-28T11:22:26;102709.88;;;5.40;49.83
11987;BME280;6053;51.382;6.768;2023-02-28T11:24:59;102690.09;;;5.09;49.39
11987;BME280;6053;51.382;6.768;2023-02-28T11:27:47;102704.72;;;4.71;49.26
11987;BME280;6053;51.382;6.768;2023-02-28T11:30:31;102701.31;;;4.49;49.23
11987;BME280;6053;51.382;6.768;2023-02-28T11:33:07;102691.28;;;5.07;54.48
11987;BME280;6053;51.382;6.768;2023-02-28T11:35:49;102692.34;;;4.77;47.81
11987;BME280;6053;51.382;6.768;2023-02-28T11:38:18;102693.78;;;4.90;48.40
11987;BME280;6053;51.382;6.768;2023-02-28T11:40:53;102695.00;;;5.06;48.17
11987;BME280;6053;51.382;6.768;2023-02-28T11:43:34;102704.91;;;4.60;53.39
11987;BME280;6053;51.382;6.768;2023-02-28T11:46:18;102694.53;;;4.54;49.42
11987;BME280;6053;51.382;6.768;2023-02-28T11:48:55;102699.56;;;4.58;55.87
11987;BME280;6053;51.382;6.768;2023-02-28T11:51:33;102693.66;;;4.05;50.28
11987;BME280;6053;51.382;6.768;2023-02-28T11:54:13;102710.91;;;4.15;52.06
11987;BME280;6053;51.382;6.768;2023-02-28T11:56:49;102696.06;;;3.88;50.57
11987;BME280;6053;51.382;6.768;2023-02-28T11:59:41;102690.78;;;3.96;53.06
11987;BME280;6053;51.382;6.768;2023-02-28T12:02:25;102688.78;;;4.18;49.81
11987;BME280;6053;51.382;6.768;2023-02-28T12:05:20;102689.81;;;4.27;48.90
11987;BME280;6053;51.382;6.768;2023-02-28T12:08:06;102682.19;;;4.40;51.33
11987;BME280;6053;51.382;6.768;2023-02-28T12:10:49;102688.78;;;4.28;51.63
11987;BME280;6053;51.382;6.768;2023-02-28T12:13:26;102680.94;;;3.74;50.58
11987;BME280;6053;51.382;6.768;2023-02-28T12:16:19;102676.13;;;4.07;54.57
11987;BME280;6053;51.382;6.768;2023-02-28T12:19:03;102675.28;;;4.16;49.97
11987;BME280;6053;51.382;6.768;2023-02-28T12:21:46;102664.19;;;4.28;50.02
11987;BME280;6053;51.382;6.768;2023-02-28T12:27:31;102649.19;;;4.70;52.06
11987;BME280;6053;51.382;6.768;2023-02-28T12:30:04;102651.09;;;4.41;51.52
11987;BME280;6053;51.382;6.768;2023-02-28T12:32:36;102654.00;;;4.39;49.49
11987;BME280;6053;51.382;6.768;2023-02-28T12:35:12;102656.84;;;4.67;53.02
11987;BME280;6053;51.382;6.768;2023-02-28T12:37:46;102648.53;;;4.20;51.97
11987;BME280;6053;51.382;6.768;2023-02-28T12:40:20;102635.41;;;4.53;52.53
11987;BME280;6053;51.382;6.768;2023-02-28T12:42:54;102642.31;;;4.66;53.67
11987;BME280;6053;51.382;6.768;2023-02-28T12:45:27;102633.00;;;4.49;48.34
11987;BME280;6053;51.382;6.768;2023-02-28T12:48:02;102632.91;;;4.79;53.57
11987;BME280;6053;51.382;6.768;2023-02-28T12:50:33;102616.59;;;4.40;50.92
11987;BME280;6053;51.382;6.768;2023-02-28T12:53:06;102625.34;;;4.53;50.20
11987;BME280;6053;51.382;6.768;2023-02-28T12:55:43;102625.19;;;5.02;56.00
11987;BME280;6053;51.382;6.768;2023-02-28T12:58:23;102625.00;;;4.76;54.28
11987;BME280;6053;51.382;6.768;2023-02-28T13:07:23;102601.78;;;4.89;50.61
11987;BME280;6053;51.382;6.768;2023-02-28T13:09:59;102592.84;;;4.97;52.21
11987;BME280;6053;51.382;6.768;2023-02-28T13:12:30;102595.75;;;5.23;50.35
11987;BME280;6053;51.382;6.768;2023-02-28T13:15:18;102591.34;;;5.03;55.69
11987;BME280;6053;51.382;6.768;2023-02-28T13:17:50;102599.38;;;4.86;52.84
11987;BME280;6053;51.382;6.768;2023-02-28T13:20:21;102589.03;;;4.80;51.71
11987;BME280;6053;51.382;6.768;2023-02-28T13:22:53;102577.09;;;5.09;59.77
11987;BME280;6053;51.382;6.768;2023-02-28T13:25:52;102593.06;;;5.13;50.29
11987;BME280;6053;51.382;6.768;2023-02-28T13:35:13;102578.41;;;5.05;53.93
11987;BME280;6053;51.382;6.768;2023-02-28T13:37:43;102576.59;;;5.23;54.07
11987;BME280;6053;51.382;6.768;2023-02-28T13:40:30;102580.59;;;5.01;50.67
11987;BME280;6053;51.382;6.768;2023-02-28T13:43:08;102583.56;;;5.08;50.00
11987;BME280;6053;51.382;6.768;2023-02-28T13:45:37;102578.09;;;4.80;55.34
11987;BME280;6053;51.382;6.768;2023-02-28T13:48:17;102578.66;;;4.84;52.75
11987;BME280;6053;51.382;6.768;2023-02-28T13:50:48;102561.56;;;5.00;52.85
11987;BME280;6053;51.382;6.768;2023-02-28T13:56:34;102557.44;;;4.95;51.59
11987;BME280;6053;51.382;6.768;2023-02-28T13:59:20;102565.59;;;5.05;50.38
11987;BME280;6053;51.382;6.768;2023-02-28T14:02:22;102560.75;;;4.89;55.47
11987;BME280;6053;51.382;6.768;2023-02-28T14:05:04;102570.59;;;4.72;50.52
11987;BME280;6053;51.382;6.768;2023-02-28T14:07:40;102560.50;;;4.83;52.04
11987;BME280;6053;51.382;6.768;2023-02-28T14:10:22;102557.94;;;5.09;50.21
11987;BME280;6053;51.382;6.768;2023-02-28T14:12:58;102555.63;;;4.86;51.75
11987;BME280;6053;51.382;6.768;2023-02-28T14:15:41;102566.56;;;5.14;54.96